sensor_id;sensor_type;location;lat;lon;timestamp;P1;P2;P0
72918;PMS7003;68407;55.694;26.994;2023-11-19T00:01:09;3.8;2.8;2
72918;PMS7003;68407;55.694;26.994;2023-11-19T00:05:51;4.6;3;2.4
72918;PMS7003;68407;55.694;26.994;2023-11-19T00:10:39;4.6;3.6;2.6
72918;PMS7003;68407;55.694;26.994;2023-11-19T00:16:08;3.8;2.4;2.2
72918;PMS7003;68407;55.694;26.994;2023-11-19T00:21:19;4;2.6;2
72918;PMS7003;68407;55.694;26.994;2023-11-19T00:25:59;3.3;2.5;2
72918;PMS7003;68407;55.694;26.994;2023-11-19T00:30:41;3.8;2.6;2.2
72918;PMS7003;68407;55.694;26.994;2023-11-19T00:35:43;4.2;2.6;2.4
72918;PMS7003;68407;55.694;26.994;2023-11-19T00:40:39;4.2;3.2;2.2
72918;PMS7003;68407;55.694;26.994;2023-11-19T00:46:19;3.2;2.6;1.8
72918;PMS7003;68407;55.694;26.994;2023-11-19T00:51:07;4.4;2.2;1.8
72918;PMS7003;68407;55.694;26.994;2023-11-19T00:56:07;3.2;2.6;1.8
72918;PMS7003;68407;55.694;26.994;2023-11-19T01:00:49;3;2.8;2
72918;PMS7003;68407;55.694;26.994;2023-11-19T01:05:41;3.6;2.6;2
72918;PMS7003;68407;55.694;26.994;2023-11-19T01:11:19;4;2.8;2.4
72918;PMS7003;68407;55.694;26.994;2023-11-19T01:15:59;3.8;2.8;2.6
72918;PMS7003;68407;55.694;26.994;2023-11-19T01:20:41;3.6;2.2;2.2
72918;PMS7003;68407;55.694;26.994;2023-11-19T01:25:51;3.5;2.8;2
72918;PMS7003;68407;55.694;26.994;2023-11-19T01:30:41;5;3.6;2.8
72918;PMS7003;68407;55.694;26.994;2023-11-19T01:36:01;3.2;2.8;2
72918;PMS7003;68407;55.694;26.994;2023-11-19T01:40:39;5;3.6;2.6
72918;PMS7003;68407;55.694;26.994;2023-11-19T01:46:07;4.2;2.8;2.4
72918;PMS7003;68407;55.694;26.994;2023-11-19T01:50:49;3.4;2.6;2.2
72918;PMS7003;68407;55.694;26.994;2023-11-19T01:56:19;4.2;3.2;2.4
72918;PMS7003;68407;55.694;26.994;2023-11-19T02:01:19;4;3.4;2.4
72918;PMS7003;68407;55.694;26.994;2023-11-19T02:05:57;4;3.2;2.4
72918;PMS7003;68407;55.694;26.994;2023-11-19T02:10:41;4.4;3.6;2.6
72918;PMS7003;68407;55.694;26.994;2023-11-19T02:15:51;4.8;3.4;2.4
72918;PMS7003;68407;55.694;26.994;2023-11-19T02:20:41;4.2;2.8;2
72918;PMS7003;68407;55.694;26.994;2023-11-19T02:30:39;4.8;3.6;2.6
72918;PMS7003;68407;55.694;26.994;2023-11-19T02:36:07;4.6;2.8;2
72918;PMS7003;68407;55.694;26.994;2023-11-19T02:40:49;4.2;2.4;1.6
72918;PMS7003;68407;55.694;26.994;2023-11-19T02:45:43;4.4;3.2;2.4
72918;PMS7003;68407;55.694;26.994;2023-11-19T02:51:19;3.8;2.8;2.4
72918;PMS7003;68407;55.694;26.994;2023-11-19T02:55:59;3.8;3.2;2.2
72918;PMS7003;68407;55.694;26.994;2023-11-19T03:00:43;4.4;3.4;3
72918;PMS7003;68407;55.694;26.994;2023-11-19T03:05:43;4;3;2.6
72918;PMS7003;68407;55.694;26.994;2023-11-19T03:11:11;3.8;2.8;2.4
72918;PMS7003;68407;55.694;26.994;2023-11-19T03:16:19;4.4;3.6;2.6
72918;PMS7003;68407;55.694;26.994;2023-11-19T03:21:19;4;3.6;3
72918;PMS7003;68407;55.694;26.994;2023-11-19T03:26:07;4.5;3.8;2.8
72918;PMS7003;68407;55.694;26.994;2023-11-19T03:30:49;4.8;3.4;3.2
72918;PMS7003;68407;55.694;26.994;2023-11-19T03:35:59;5.6;3.8;2.6
72918;PMS7003;68407;55.694;26.994;2023-11-19T03:41:21;4.4;3.8;3
72918;PMS7003;68407;55.694;26.994;2023-11-19T03:45:39;4.2;3.4;2.8
72918;PMS7003;68407;55.694;26.994;2023-11-19T03:50:49;4.4;3.4;3
72918;PMS7003;68407;55.694;26.994;2023-11-19T03:55:39;5.6;4;2.8
72918;PMS7003;68407;55.694;26.994;2023-11-19T04:01:10;5;3.2;2.8
72918;PMS7003;68407;55.694;26.994;2023-11-19T04:06:21;3.6;2.8;2
72918;PMS7003;68407;55.694;26.994;2023-11-19T04:11:09;3.6;3;2.4
72918;PMS7003;68407;55.694;26.994;2023-11-19T04:16:07;4.4;3.6;2.4
72918;PMS7003;68407;55.694;26.994;2023-11-19T04:21:21;5.4;3.6;2.8
72918;PMS7003;68407;55.694;26.994;2023-11-19T04:25:39;5;3.5;3
72918;PMS7003;68407;55.694;26.994;2023-11-19T04:31:17;4.2;3.8;2.6
72918;PMS7003;68407;55.694;26.994;2023-11-19T04:35:57;5;4.4;3.2
72918;PMS7003;68407;55.694;26.994;2023-11-19T04:41:05;5.4;4.2;3.4
72918;PMS7003;68407;55.694;26.994;2023-11-19T04:45:41;5.2;4.4;3.4
72918;PMS7003;68407;55.694;26.994;2023-11-19T04:51:09;6;4.2;3.2
72918;PMS7003;68407;55.694;26.994;2023-11-19T04:56:17;4.8;4;2.8
72918;PMS7003;68407;55.694;26.994;2023-11-19T05:00:41;5.8;4.2;3
72918;PMS7003;68407;55.694;26.994;2023-11-19T05:05:59;5.4;4;3.4
72918;PMS7003;68407;55.694;26.994;2023-11-19T05:10:41;5.6;3.8;2.8
72918;PMS7003;68407;55.694;26.994;2023-11-19T05:16:07;5;3.8;3.2
72918;PMS7003;68407;55.694;26.994;2023-11-19T05:21:15;5.6;4.4;3.8
72918;PMS7003;68407;55.694;26.994;2023-11-19T05:25:41;5.8;4.4;3.6
72918;PMS7003;68407;55.694;26.994;2023-11-19T05:30:47;5.3;4;3
72918;PMS7003;68407;55.694;26.994;2023-11-19T05:35:39;5.6;4.4;3.2
72918;PMS7003;68407;55.694;26.994;2023-11-19T05:41:09;5.2;4.2;3.4
72918;PMS7003;68407;55.694;26.994;2023-11-19T05:46:17;4.8;4;3.2
72918;PMS7003;68407;55.694;26.994;2023-11-19T05:51:07;4.4;4;3.4
72918;PMS7003;68407;55.694;26.994;2023-11-19T05:55:59;4.8;3.8;2.8
72918;PMS7003;68407;55.694;26.994;2023-11-19T06:00:41;5.6;4.6;3.2
72918;PMS7003;68407;55.694;26.994;2023-11-19T06:05:39;5.6;4.2;3.4
72918;PMS7003;68407;55.694;26.994;2023-11-19T06:11:21;5.4;4.2;2.8
72918;PMS7003;68407;55.694;26.994;2023-11-19T06:15:41;4.8;4.2;3.4
72918;PMS7003;68407;55.694;26.994;2023-11-19T06:20:57;4.6;4;3
72918;PMS7003;68407;55.694;26.994;2023-11-19T06:25:39;5.4;4.6;3.4
72918;PMS7003;68407;55.694;26.994;2023-11-19T06:30:59;5.3;4.3;3.5
72918;PMS7003;68407;55.694;26.994;2023-11-19T06:36:14;5.2;4;2.8
72918;PMS7003;68407;55.694;26.994;2023-11-19T06:41:15;5.4;4.6;3.2
72918;PMS7003;68407;55.694;26.994;2023-11-19T06:46:05;6.8;4.8;3.4
72918;PMS7003;68407;55.694;26.994;2023-11-19T06:51:15;4.6;3.8;3.2
72918;PMS7003;68407;55.694;26.994;2023-11-19T06:55:41;4.8;3.8;3
72918;PMS7003;68407;55.694;26.994;2023-11-19T07:01:03;5.4;4;3
72918;PMS7003;68407;55.694;26.994;2023-11-19T07:05:39;6.6;5.6;4
72918;PMS7003;68407;55.694;26.994;2023-11-19T07:10:39;6.2;5.2;3.6
72918;PMS7003;68407;55.694;26.994;2023-11-19T07:15:47;5.4;4.6;3.2
72918;PMS7003;68407;55.694;26.994;2023-11-19T07:20:53;5.2;4.4;3.2
72918;PMS7003;68407;55.694;26.994;2023-11-19T07:26:19;6.8;4.6;3.6
72918;PMS7003;68407;55.694;26.994;2023-11-19T07:31:19;6.3;4.5;3.5
72918;PMS7003;68407;55.694;26.994;2023-11-19T07:36:07;6;4.2;3.2
72918;PMS7003;68407;55.694;26.994;2023-11-19T07:41:17;6.8;4.4;3.8
72918;PMS7003;68407;55.694;26.994;2023-11-19T07:45:39;6.2;4.8;3.6
72918;PMS7003;68407;55.694;26.994;2023-11-19T07:51:05;6.6;5.2;4.2
72918;PMS7003;68407;55.694;26.994;2023-11-19T07:55:51;6.8;5.2;4.2
72918;PMS7003;68407;55.694;26.994;2023-11-19T08:00:41;5.2;4.6;4
72918;PMS7003;68407;55.694;26.994;2023-11-19T08:05:49;6;5;3.8
72918;PMS7003;68407;55.694;26.994;2023-11-19T08:10:41;5.8;5.6;4.2
72918;PMS7003;68407;55.694;26.994;2023-11-19T08:16:15;7;6;4.6
72918;PMS7003;68407;55.694;26.994;2023-11-19T08:21:17;6.4;5.4;4.2
72918;PMS7003;68407;55.694;26.994;2023-11-19T08:26:07;6;5;4
72918;PMS7003;68407;55.694;26.994;2023-11-19T08:31:19;8;6;4.3
72918;PMS7003;68407;55.694;26.994;2023-11-19T08:35:57;6;4.6;3.4
72918;PMS7003;68407;55.694;26.994;2023-11-19T08:40:39;7.6;4.8;4
72918;PMS7003;68407;55.694;26.994;2023-11-19T08:45:45;6.2;4.6;3.4
72918;PMS7003;68407;55.694;26.994;2023-11-19T08:50:39;7.6;6.8;4.8
72918;PMS7003;68407;55.694;26.994;2023-11-19T08:55:41;8.6;7.6;5.4
72918;PMS7003;68407;55.694;26.994;2023-11-19T09:00:51;11.8;9.8;7.6
72918;PMS7003;68407;55.694;26.994;2023-11-19T09:06:19;12.6;9.8;7.8
72918;PMS7003;68407;55.694;26.994;2023-11-19T09:11:19;14;11;8
72918;PMS7003;68407;55.694;26.994;2023-11-19T09:15:59;13.6;11;7.8
72918;PMS7003;68407;55.694;26.994;2023-11-19T09:21:13;17.8;14.2;10.2
72918;PMS7003;68407;55.694;26.994;2023-11-19T09:25:39;17.2;14.4;10.2
72918;PMS7003;68407;55.694;26.994;2023-11-19T09:31:12;17.3;14.5;10.3
72918;PMS7003;68407;55.694;26.994;2023-11-19T09:35:39;17.2;14.6;10
72918;PMS7003;68407;55.694;26.994;2023-11-19T09:41:09;15.6;13.6;10.2
72918;PMS7003;68407;55.694;26.994;2023-11-19T09:45:43;14.6;11.8;8.6
72918;PMS7003;68407;55.694;26.994;2023-11-19T09:50:49;12.4;9.4;7
72918;PMS7003;68407;55.694;26.994;2023-11-19T09:56:19;12.8;10;7.6
72918;PMS7003;68407;55.694;26.994;2023-11-19T10:01:19;15.4;10.6;7.4
72918;PMS7003;68407;55.694;26.994;2023-11-19T10:05:59;13.6;11.2;8.2
72918;PMS7003;68407;55.694;26.994;2023-11-19T10:11:17;15.8;13.6;9.4
72918;PMS7003;68407;55.694;26.994;2023-11-19T10:15:41;12.6;10.8;7.8
72918;PMS7003;68407;55.694;26.994;2023-11-19T10:20:49;13.4;11.2;8.2
72918;PMS7003;68407;55.694;26.994;2023-11-19T10:25:41;13.8;9.4;7
72918;PMS7003;68407;55.694;26.994;2023-11-19T10:30:41;10.8;10;7.2
72918;PMS7003;68407;55.694;26.994;2023-11-19T10:35:50;12.3;10;8
72918;PMS7003;68407;55.694;26.994;2023-11-19T10:40:41;12.6;9.2;7.2
72918;PMS7003;68407;55.694;26.994;2023-11-19T10:46:17;11.8;10;7.2
72918;PMS7003;68407;55.694;26.994;2023-11-19T10:51:17;13;9.2;6.6
72918;PMS7003;68407;55.694;26.994;2023-11-19T10:55:47;12.4;10.4;7.8
72918;PMS7003;68407;55.694;26.994;2023-11-19T11:01:18;13.6;10.6;7.8
72918;PMS7003;68407;55.694;26.994;2023-11-19T11:05:41;11.8;10.2;7.8
72918;PMS7003;68407;55.694;26.994;2023-11-19T11:11:17;13;10.6;7.2
72918;PMS7003;68407;55.694;26.994;2023-11-19T11:15:39;16.2;13.4;9.4
72918;PMS7003;68407;55.694;26.994;2023-11-19T11:20:41;11;10.2;7.2
72918;PMS7003;68407;55.694;26.994;2023-11-19T11:25:58;12.4;10.2;7
72918;PMS7003;68407;55.694;26.994;2023-11-19T11:30:45;12.6;10.2;7.6
72918;PMS7003;68407;55.694;26.994;2023-11-19T11:35:59;12.8;10.3;7.3
72918;PMS7003;68407;55.694;26.994;2023-11-19T11:41:23;12;9.6;7.4
72918;PMS7003;68407;55.694;26.994;2023-11-19T11:47:24;12.8;11;8
72918;PMS7003;68407;55.694;26.994;2023-11-19T11:51:19;13.6;10.6;8
72918;PMS7003;68407;55.694;26.994;2023-11-19T11:55:51;12.6;10.4;7.8
72918;PMS7003;68407;55.694;26.994;2023-11-19T12:01:17;13.2;11.2;7
72918;PMS7003;68407;55.694;26.994;2023-11-19T12:05:40;12.8;10.2;8
72918;PMS7003;68407;55.694;26.994;2023-11-19T12:10:43;13.6;11.4;8
72918;PMS7003;68407;55.694;26.994;2023-11-19T12:16:06;14.4;11.4;8.4
72918;PMS7003;68407;55.694;26.994;2023-11-19T12:20:39;13.6;11.8;8
72918;PMS7003;68407;55.694;26.994;2023-11-19T12:25:55;15.2;12.4;8.6
72918;PMS7003;68407;55.694;26.994;2023-11-19T12:31:06;15.2;12;8.6
72918;PMS7003;68407;55.694;26.994;2023-11-19T12:36:15;14;12;8
72918;PMS7003;68407;55.694;26.994;2023-11-19T12:41:15;15.6;11.6;8
72918;PMS7003;68407;55.694;26.994;2023-11-19T12:45:39;15.6;11.8;8.2
72918;PMS7003;68407;55.694;26.994;2023-11-19T12:51:17;15.6;11.8;8
72918;PMS7003;68407;55.694;26.994;2023-11-19T12:55:39;13.6;11.2;8.2
72918;PMS7003;68407;55.694;26.994;2023-11-19T13:00:39;15;11.4;8.4
72918;PMS7003;68407;55.694;26.994;2023-11-19T13:06:01;16;12.6;8.2
72918;PMS7003;68407;55.694;26.994;2023-11-19T13:10:51;15.8;11.4;9.2
72918;PMS7003;68407;55.694;26.994;2023-11-19T13:15:41;15;11.6;8.4
72918;PMS7003;68407;55.694;26.994;2023-11-19T13:20:57;16.2;13.2;9
72918;PMS7003;68407;55.694;26.994;2023-11-19T13:26:19;14.8;12.2;8.2
72918;PMS7003;68407;55.694;26.994;2023-11-19T13:31:19;15;12;8.8
72918;PMS7003;68407;55.694;26.994;2023-11-19T13:35:59;15.3;12.8;8.5
72918;PMS7003;68407;55.694;26.994;2023-11-19T13:41:17;15.6;12.4;9
72918;PMS7003;68407;55.694;26.994;2023-11-19T13:45:40;15.8;12.2;8.6
72918;PMS7003;68407;55.694;26.994;2023-11-19T13:50:39;16.4;12.6;9.2
72918;PMS7003;68407;55.694;26.994;2023-11-19T13:55:57;15.8;12.8;9.4
72918;PMS7003;68407;55.694;26.994;2023-11-19T14:00:49;14.2;12.4;8.6
72918;PMS7003;68407;55.694;26.994;2023-11-19T14:05:57;15;12;8
72918;PMS7003;68407;55.694;26.994;2023-11-19T14:10:57;15.2;12;8.6
72918;PMS7003;68407;55.694;26.994;2023-11-19T14:16:17;17.4;13;9
72918;PMS7003;68407;55.694;26.994;2023-11-19T14:21:19;16.2;12.8;9.2
72918;PMS7003;68407;55.694;26.994;2023-11-19T14:25:57;17.2;13.6;9.6
72918;PMS7003;68407;55.694;26.994;2023-11-19T14:31:17;20.8;16;10
72918;PMS7003;68407;55.694;26.994;2023-11-19T14:35:51;19.8;16.3;11
72918;PMS7003;68407;55.694;26.994;2023-11-19T14:40:39;18.4;14.4;10.4
72918;PMS7003;68407;55.694;26.994;2023-11-19T14:45:57;21.4;16.4;10.8
72918;PMS7003;68407;55.694;26.994;2023-11-19T14:51:07;17.6;15.4;10
72918;PMS7003;68407;55.694;26.994;2023-11-19T14:55:57;21.4;15.2;10.4
72918;PMS7003;68407;55.694;26.994;2023-11-19T15:01:01;21.8;15.8;10.4
72918;PMS7003;68407;55.694;26.994;2023-11-19T15:06:22;20;16.6;10.8
72918;PMS7003;68407;55.694;26.994;2023-11-19T15:11:17;19.8;16.4;11.2
72918;PMS7003;68407;55.694;26.994;2023-11-19T15:15:59;20.6;16.8;10.2
72918;PMS7003;68407;55.694;26.994;2023-11-19T15:21:19;22.6;16.6;10.8
72918;PMS7003;68407;55.694;26.994;2023-11-19T15:25:45;20.6;15.8;9.4
72918;PMS7003;68407;55.694;26.994;2023-11-19T15:30:41;25.8;19.4;11.4
72918;PMS7003;68407;55.694;26.994;2023-11-19T15:35:57;23.6;18;11.8
72918;PMS7003;68407;55.694;26.994;2023-11-19T15:40:49;22.8;17.5;12
72918;PMS7003;68407;55.694;26.994;2023-11-19T15:45:57;22.6;18.2;11.2
72918;PMS7003;68407;55.694;26.994;2023-11-19T15:50:59;20.2;17;11.2
72918;PMS7003;68407;55.694;26.994;2023-11-19T15:56:15;18;14.4;9.8
72918;PMS7003;68407;55.694;26.994;2023-11-19T16:01:19;20.8;15;10.4
72918;PMS7003;68407;55.694;26.994;2023-11-19T16:05:59;22.6;18.6;11.6
72918;PMS7003;68407;55.694;26.994;2023-11-19T16:11:21;21;17.2;11.6
72918;PMS7003;68407;55.694;26.994;2023-11-19T16:15:39;18.4;15.2;9.6
72918;PMS7003;68407;55.694;26.994;2023-11-19T16:20:43;18.6;15.2;10.4
72918;PMS7003;68407;55.694;26.994;2023-11-19T16:25:49;20.8;15.8;10.4
72918;PMS7003;68407;55.694;26.994;2023-11-19T16:30:53;20.6;15;9.8
72918;PMS7003;68407;55.694;26.994;2023-11-19T16:36:01;21;17.8;11.2
72918;PMS7003;68407;55.694;26.994;2023-11-19T16:40:41;19.8;16.5;10.8
72918;PMS7003;68407;55.694;26.994;2023-11-19T16:46:17;23;15.2;9.8
72918;PMS7003;68407;55.694;26.994;2023-11-19T16:51:19;20.4;15.6;10.6
72918;PMS7003;68407;55.694;26.994;2023-11-19T16:55:57;19.6;16.4;10.6
72918;PMS7003;68407;55.694;26.994;2023-11-19T17:01:17;21.4;15.4;10.2
72918;PMS7003;68407;55.694;26.994;2023-11-19T17:05:49;20.8;16.8;11.6
72918;PMS7003;68407;55.694;26.994;2023-11-19T17:10:59;20;16.8;10.8
72918;PMS7003;68407;55.694;26.994;2023-11-19T17:15:41;18;15.4;10
72918;PMS7003;68407;55.694;26.994;2023-11-19T17:20:49;20.4;15.4;9.8
72918;PMS7003;68407;55.694;26.994;2023-11-19T17:25:57;23.4;19;11.8
72918;PMS7003;68407;55.694;26.994;2023-11-19T17:30:59;27.6;19.4;13.2
72918;PMS7003;68407;55.694;26.994;2023-11-19T17:36:17;22.8;17.4;10.8
72918;PMS7003;68407;55.694;26.994;2023-11-19T17:41:19;31.5;23.5;15
72918;PMS7003;68407;55.694;26.994;2023-11-19T17:45:39;25.6;18;12.4
72918;PMS7003;68407;55.694;26.994;2023-11-19T17:50:53;19.4;16;11.2
72918;PMS7003;68407;55.694;26.994;2023-11-19T17:55:39;21.4;17.4;11.6
72918;PMS7003;68407;55.694;26.994;2023-11-19T18:00:39;21.4;17.4;10.6
72918;PMS7003;68407;55.694;26.994;2023-11-19T18:05:57;22.6;17.8;11.2
72918;PMS7003;68407;55.694;26.994;2023-11-19T18:10:49;22.8;18.4;11.6
72918;PMS7003;68407;55.694;26.994;2023-11-19T18:15:59;21.4;17.4;11.2
72918;PMS7003;68407;55.694;26.994;2023-11-19T18:20:59;23.2;18.6;11.8
72918;PMS7003;68407;55.694;26.994;2023-11-19T18:26:19;19.8;16.6;11
72918;PMS7003;68407;55.694;26.994;2023-11-19T18:31:21;22.6;17.6;12.4
72918;PMS7003;68407;55.694;26.994;2023-11-19T18:36:01;23.4;18.4;10.8
72918;PMS7003;68407;55.694;26.994;2023-11-19T18:41:19;21.8;17.5;11.5
72918;PMS7003;68407;55.694;26.994;2023-11-19T18:45:40;22.8;17.4;11.6
72918;PMS7003;68407;55.694;26.994;2023-11-19T18:50:39;22.8;16.8;10.4
72918;PMS7003;68407;55.694;26.994;2023-11-19T18:56:11;23.4;16.2;10.4
72918;PMS7003;68407;55.694;26.994;2023-11-19T19:00:49;25.4;19.8;11.6
72918;PMS7003;68407;55.694;26.994;2023-11-19T19:06:19;24.4;17.2;11
72918;PMS7003;68407;55.694;26.994;2023-11-19T19:10:39;24;19;11.4
72918;PMS7003;68407;55.694;26.994;2023-11-19T19:16:19;22.8;16.6;10.4
72918;PMS7003;68407;55.694;26.994;2023-11-19T19:21:17;23.4;18.6;12
72918;PMS7003;68407;55.694;26.994;2023-11-19T19:25:55;22.2;19;11.8
72918;PMS7003;68407;55.694;26.994;2023-11-19T19:31:19;26;19;11.6
72918;PMS7003;68407;55.694;26.994;2023-11-19T19:35:39;20.6;16.6;11.2
72918;PMS7003;68407;55.694;26.994;2023-11-19T19:40:47;26.5;20.8;12.8
72918;PMS7003;68407;55.694;26.994;2023-11-19T19:45:49;25.4;18.4;12.4
72918;PMS7003;68407;55.694;26.994;2023-11-19T19:50:43;26.8;19;12
72918;PMS7003;68407;55.694;26.994;2023-11-19T19:56:01;23.8;17.6;11.2
72918;PMS7003;68407;55.694;26.994;2023-11-19T20:00:49;22;18.2;11.8
72918;PMS7003;68407;55.694;26.994;2023-11-19T20:05:49;25;18.4;12.2
72918;PMS7003;68407;55.694;26.994;2023-11-19T20:11:19;25.8;19.2;11.8
72918;PMS7003;68407;55.694;26.994;2023-11-19T20:16:19;24.8;19;11.6
72918;PMS7003;68407;55.694;26.994;2023-11-19T20:20:39;19.6;15.6;10.4
72918;PMS7003;68407;55.694;26.994;2023-11-19T20:25:49;23.8;20.2;12.6
72918;PMS7003;68407;55.694;26.994;2023-11-19T20:30:39;22.4;18;12.2
72918;PMS7003;68407;55.694;26.994;2023-11-19T20:35:51;22.2;17.8;10.8
72918;PMS7003;68407;55.694;26.994;2023-11-19T20:40:43;21.6;15.6;10.4
72918;PMS7003;68407;55.694;26.994;2023-11-19T20:46:07;21;16.5;10.5
72918;PMS7003;68407;55.694;26.994;2023-11-19T20:51:01;20.4;16;9.8
72918;PMS7003;68407;55.694;26.994;2023-11-19T20:55:41;18.8;15.2;10
72918;PMS7003;68407;55.694;26.994;2023-11-19T21:01:21;18.2;14.8;9.6
72918;PMS7003;68407;55.694;26.994;2023-11-19T21:06:09;19.8;16.2;10.8
72918;PMS7003;68407;55.694;26.994;2023-11-19T21:10:59;20.2;15.6;10
72918;PMS7003;68407;55.694;26.994;2023-11-19T21:15:51;20.2;15.4;10.6
72918;PMS7003;68407;55.694;26.994;2023-11-19T21:20:39;19.4;15.6;10.2
72918;PMS7003;68407;55.694;26.994;2023-11-19T21:26:17;19;15;10.6
72918;PMS7003;68407;55.694;26.994;2023-11-19T21:31:09;17.8;14;9
72918;PMS7003;68407;55.694;26.994;2023-11-19T21:35:49;18.2;15;9.8
72918;PMS7003;68407;55.694;26.994;2023-11-19T21:40:59;20.8;17.4;10.8
72918;PMS7003;68407;55.694;26.994;2023-11-19T21:45:39;20;15.8;10.5
72918;PMS7003;68407;55.694;26.994;2023-11-19T21:51:19;21.4;16.4;10.6
72918;PMS7003;68407;55.694;26.994;2023-11-19T21:56:11;21.8;17.4;11.2
72918;PMS7003;68407;55.694;26.994;2023-11-19T22:00:39;23.8;18.4;12
72918;PMS7003;68407;55.694;26.994;2023-11-19T22:05:47;24;19.4;12.8
72918;PMS7003;68407;55.694;26.994;2023-11-19T22:10:59;23.2;17.2;10.4
72918;PMS7003;68407;55.694;26.994;2023-11-19T22:16:19;23.2;18.8;12.6
72918;PMS7003;68407;55.694;26.994;2023-11-19T22:20:59;25.4;18.8;11.2
72918;PMS7003;68407;55.694;26.994;2023-11-19T22:25:49;22.2;16.6;11.4
72918;PMS7003;68407;55.694;26.994;2023-11-19T22:30:59;23.4;19.6;12.4
72918;PMS7003;68407;55.694;26.994;2023-11-19T22:35:51;25.4;19.4;11.8
72918;PMS7003;68407;55.694;26.994;2023-11-19T22:41:19;26.2;20.6;13
72918;PMS7003;68407;55.694;26.994;2023-11-19T22:45:41;26;20.5;12.8
72918;PMS7003;68407;55.694;26.994;2023-11-19T22:50:39;25.4;20;12.8
72918;PMS7003;68407;55.694;26.994;2023-11-19T22:55:39;27.8;21.6;13.8
72918;PMS7003;68407;55.694;26.994;2023-11-19T23:00:41;27.4;21.2;13
72918;PMS7003;68407;55.694;26.994;2023-11-19T23:06:17;29.8;23;15.4
72918;PMS7003;68407;55.694;26.994;2023-11-19T23:10:39;26.2;22.2;13.6
72918;PMS7003;68407;55.694;26.994;2023-11-19T23:15:59;27;21.4;12.8
72918;PMS7003;68407;55.694;26.994;2023-11-19T23:21:01;26;20;12.6
72918;PMS7003;68407;55.694;26.994;2023-11-19T23:25:51;26;21.2;13.2
72918;PMS7003;68407;55.694;26.994;2023-11-19T23:31:19;29.2;23.8;15.2
72918;PMS7003;68407;55.694;26.994;2023-11-19T23:35:59;32.2;24.2;14.6
72918;PMS7003;68407;55.694;26.994;2023-11-19T23:40:41;31;23.8;15
72918;PMS7003;68407;55.694;26.994;2023-11-19T23:45:41;31.8;23.5;14
72918;PMS7003;68407;55.694;26.994;2023-11-19T23:50:41;29.4;24.6;15.4
72918;PMS7003;68407;55.694;26.994;2023-11-19T23:56:17;32.8;25.6;15.2
